Strona główna
METAR-TAF:

METAR-TAF

Lotnisko :

Port lotniczy Tunis

Tunis, Tunezja

Szerokość geograficzna: 36-50N, Długość geograficzna: 010-14E, wysokość: 3 m

Aktualna obserwacja pogody

Raport powstał 23 minut temu, godzina 19:30 UTC
Wiatr 8 kt od północno-północny zachód
Temperatura 23°C
Wilgotność 69%
Ciśnienie 1014 hPa
Widzialność 10 km lub więcej
Rozproszone chmury na wysokości 2600 ft

METAR: DTTA 251930Z 34008KT 9999 SCT026 23/17 Q1014 NOSIG

czas: 20:53 (19:53 UTC)

Prognoza

Raport powstał 2 godziny i 10 minut temu, godzina 17:43 UTC
Prognoza ważna od 25 godzina 18 UTC do 26 godzina 18 UTC
Wiatr 12 kt od północ
Widzialność 10 km lub więcej
Rozproszone chmury na wysokości 2600 ft

TAF: DTTA 251743Z 2518/2618 01012KT 9999 SCT026

Obserwacja i prognoza pogody dla ponad 4000 lotnisk (raport METAR i TAF).

Dostępne stacje oznaczono żółtymi i czerwonymi punktami na mapie.

Najedź kursorem aby zobaczyć nazwę stacji.

Kliknij aby zobaczyć obserwacje i prognozy pogody.

Aby zmienić mapę: kliknij na zielony przycisk z czarnym krzyżykiem, aby powiększyć; na zielony przycisk z myślnikiem, aby pomniejszyć; na zielone strzałki, aby przejść do map sąsiednich.


METAR-TAF: